createdAt,value
2019-02-25T00:00:56.583Z,5.33
2019-02-25T00:05:52.440Z,5.37
2019-02-25T00:10:51.526Z,5.10
2019-02-25T00:15:47.914Z,5.27
2019-02-25T00:20:45.630Z,4.40
2019-02-25T00:25:43.564Z,4.47
2019-02-25T00:30:39.368Z,4.63
2019-02-25T00:35:35.155Z,5.03
2019-02-25T00:40:32.679Z,4.57
2019-02-25T00:45:28.535Z,4.13
2019-02-25T00:50:24.529Z,4.43
2019-02-25T00:55:29.677Z,4.30
2019-02-25T01:00:26.993Z,4.23
2019-02-25T01:05:22.795Z,4.20
2019-02-25T01:10:19.149Z,3.93
2019-02-25T01:15:15.738Z,3.80
2019-02-25T01:20:11.839Z,4.33
2019-02-25T01:25:09.812Z,4.10
2019-02-25T01:30:07.455Z,4.50
2019-02-25T01:35:03.388Z,4.13
2019-02-25T01:39:59.438Z,4.20
2019-02-25T01:44:55.316Z,4.20
2019-02-25T01:49:51.133Z,4.00
2019-02-25T01:54:46.941Z,3.80
2019-02-25T01:59:42.709Z,4.30
2019-02-25T02:04:38.653Z,4.20
2019-02-25T02:09:34.469Z,3.70
2019-02-25T02:14:30.321Z,4.17
2019-02-25T02:19:26.268Z,4.00
2019-02-25T02:24:22.181Z,3.80
2019-02-25T02:29:18.430Z,4.10
2019-02-25T02:34:14.322Z,4.17
2019-02-25T02:39:10.343Z,4.50
2019-02-25T02:44:06.173Z,4.37
2019-02-25T02:49:05.190Z,4.53
2019-02-25T02:54:01.209Z,4.13
2019-02-25T02:58:57.086Z,4.60
2019-02-25T03:03:52.976Z,4.50
2019-02-25T03:08:48.798Z,4.23
2019-02-25T03:13:44.677Z,4.30
2019-02-25T03:18:40.707Z,4.47
2019-02-25T03:23:36.756Z,4.67
2019-02-25T03:28:32.761Z,4.30
2019-02-25T03:33:28.653Z,4.60
2019-02-25T03:38:24.556Z,4.20
2019-02-25T03:43:20.378Z,4.30
2019-02-25T03:48:16.276Z,4.50
2019-02-25T03:53:12.145Z,4.43
2019-02-25T03:58:07.994Z,4.43
2019-02-25T04:03:03.944Z,4.57
2019-02-25T04:07:59.805Z,4.20
2019-02-25T04:12:55.761Z,4.33
2019-02-25T04:17:51.566Z,4.20
2019-02-25T04:22:47.434Z,4.10
2019-02-25T04:27:43.475Z,4.80
2019-02-25T04:32:39.293Z,4.20
2019-02-25T04:37:35.208Z,4.30
2019-02-25T04:42:31.001Z,4.23
2019-02-25T04:47:26.970Z,4.40
2019-02-25T04:52:22.876Z,4.20
2019-02-25T04:57:18.815Z,4.50
2019-02-25T05:14:47.713Z,4.80
2019-02-25T05:19:43.625Z,4.47
2019-02-25T05:24:39.455Z,4.77
2019-02-25T05:29:35.317Z,4.27
2019-02-25T05:34:31.286Z,4.03
2019-02-25T05:39:27.105Z,4.30
2019-02-25T05:44:22.995Z,4.03
2019-02-25T05:49:18.835Z,4.30
2019-02-25T05:54:14.663Z,4.47
2019-02-25T05:59:10.513Z,4.40
2019-02-25T06:04:06.304Z,5.10
2019-02-25T06:09:02.182Z,5.10
2019-02-25T06:13:57.991Z,5.77
2019-02-25T06:18:53.991Z,8.67
2019-02-25T06:23:49.787Z,14.10
2019-02-25T06:28:47.099Z,15.27
2019-02-25T06:33:43.201Z,12.10
2019-02-25T06:38:39.081Z,7.53
2019-02-25T06:43:34.977Z,5.57
2019-02-25T06:48:30.805Z,5.70
2019-02-25T06:53:27.635Z,5.03
2019-02-25T06:58:23.732Z,5.53
2019-02-25T07:03:19.613Z,5.77
2019-02-25T07:08:34.271Z,5.20
2019-02-25T07:13:36.382Z,6.27
2019-02-25T07:18:49.129Z,5.90
2019-02-25T07:24:21.778Z,6.37
2019-02-25T07:29:39.599Z,5.80
2019-02-25T07:34:52.955Z,5.87
2019-02-25T07:40:05.925Z,6.90
2019-02-25T07:45:26.391Z,6.57
2019-02-25T07:50:47.139Z,6.40
2019-02-25T07:56:02.370Z,8.20
2019-02-25T08:01:03.473Z,8.70
2019-02-25T08:06:26.786Z,6.40
2019-02-25T08:11:34.973Z,6.57
2019-02-25T08:16:46.391Z,6.23
2019-02-25T08:22:06.915Z,5.40
2019-02-25T08:27:14.569Z,5.47
2019-02-25T08:32:41.313Z,5.30
2019-02-25T08:38:01.892Z,4.07
2019-02-25T08:43:02.804Z,4.57
2019-02-25T08:48:11.514Z,4.20
2019-02-25T08:53:07.275Z,4.20
2019-02-25T08:58:03.179Z,4.20
2019-02-25T09:02:58.898Z,4.67
2019-02-25T09:07:54.712Z,5.37
2019-02-25T09:12:50.470Z,4.23
2019-02-25T09:17:44.399Z,4.63
2019-02-25T09:22:40.230Z,4.87
2019-02-25T09:27:36.066Z,6.00
2019-02-25T09:32:31.799Z,6.13
2019-02-25T09:37:27.688Z,6.07
2019-02-25T09:42:23.455Z,7.20
2019-02-25T09:47:19.196Z,5.97
2019-02-25T09:52:14.987Z,6.17
2019-02-25T09:57:10.989Z,6.07
2019-02-25T10:02:06.784Z,5.87
2019-02-25T10:07:02.743Z,6.23
2019-02-25T10:11:58.568Z,6.10
2019-02-25T10:16:54.316Z,6.00
2019-02-25T10:21:50.234Z,6.90
2019-02-25T10:26:46.101Z,6.13
2019-02-25T10:31:43.716Z,6.17
2019-02-25T10:36:39.352Z,6.60
2019-02-25T10:41:35.115Z,5.60
2019-02-25T10:46:30.917Z,5.97
2019-02-25T10:51:26.760Z,6.23
2019-02-25T10:56:51.488Z,5.83
2019-02-25T11:01:47.524Z,6.47
2019-02-25T11:06:43.391Z,6.87
2019-02-25T11:11:41.339Z,6.17
2019-02-25T11:16:37.140Z,6.10
2019-02-25T11:21:35.181Z,5.43
2019-02-25T11:26:31.131Z,6.30
2019-02-25T11:31:29.135Z,6.00
2019-02-25T11:36:25.092Z,5.93
2019-02-25T11:41:20.913Z,5.87
2019-02-25T11:46:16.841Z,6.20
2019-02-25T11:51:12.657Z,6.20
2019-02-25T11:56:08.531Z,6.23
2019-02-25T12:01:04.760Z,6.10
2019-02-25T12:06:02.981Z,6.47
2019-02-25T12:10:58.815Z,6.23
2019-02-25T12:15:54.541Z,5.87
2019-02-25T12:20:50.386Z,6.37
2019-02-25T12:25:46.181Z,6.00
2019-02-25T12:30:42.198Z,6.97
2019-02-25T12:35:37.989Z,6.37
2019-02-25T12:40:33.789Z,5.97
2019-02-25T12:45:29.636Z,6.00
2019-02-25T12:50:25.638Z,5.60
2019-02-25T12:55:21.418Z,6.13
2019-02-25T13:00:17.519Z,7.10
2019-02-25T13:05:15.655Z,6.13
2019-02-25T13:10:13.578Z,6.13
2019-02-25T13:15:13.861Z,5.73
2019-02-25T13:20:10.116Z,5.70
2019-02-25T13:25:08.069Z,7.50
2019-02-25T13:30:05.963Z,10.43
2019-02-25T13:35:01.767Z,5.73
2019-02-25T13:39:57.591Z,6.10
2019-02-25T13:44:53.515Z,5.53
2019-02-25T13:49:49.425Z,5.37
2019-02-25T13:54:45.388Z,4.70
2019-02-25T13:59:41.149Z,4.90
2019-02-25T14:04:37.286Z,4.67
2019-02-25T14:09:33.299Z,4.83
2019-02-25T14:14:29.505Z,4.30
2019-02-25T14:19:25.352Z,4.00
2019-02-25T14:24:21.223Z,4.70
2019-02-25T14:29:17.516Z,4.50
2019-02-25T14:34:13.583Z,4.70
2019-02-25T14:39:24.813Z,4.87
2019-02-25T14:44:19.514Z,4.67
2019-02-25T14:49:17.222Z,4.80
2019-02-25T14:54:17.994Z,5.10
2019-02-25T14:59:15.609Z,5.20
2019-02-25T15:04:14.013Z,4.40
2019-02-25T15:09:14.185Z,5.17
2019-02-25T15:14:12.867Z,5.33
2019-02-25T15:19:09.876Z,6.10
2019-02-25T15:24:06.880Z,5.17
2019-02-25T15:29:09.262Z,4.67
2019-02-25T15:34:06.036Z,4.63
2019-02-25T15:39:07.384Z,4.57
2019-02-25T15:44:08.889Z,4.40
2019-02-25T15:49:04.738Z,3.97
2019-02-25T15:54:01.040Z,4.17
2019-02-25T15:58:58.317Z,4.50
2019-02-25T16:03:56.506Z,4.03
2019-02-25T16:09:03.039Z,3.87
2019-02-25T16:14:02.966Z,3.93
2019-02-25T16:19:05.638Z,4.93
2019-02-25T16:24:04.832Z,4.23
2019-02-25T16:29:03.988Z,3.60
2019-02-25T16:33:57.719Z,4.03
2019-02-25T16:38:55.796Z,4.57
2019-02-25T16:43:51.112Z,4.00
2019-02-25T16:48:48.398Z,4.57
2019-02-25T16:53:52.220Z,5.43
2019-02-25T16:58:48.201Z,5.00
2019-02-25T17:03:46.393Z,4.63
2019-02-25T17:08:44.323Z,4.80
2019-02-25T17:13:44.136Z,4.07
2019-02-25T17:18:40.051Z,3.97
2019-02-25T17:23:48.716Z,3.90
2019-02-25T17:28:52.580Z,4.30
2019-02-25T17:33:56.172Z,4.57
2019-02-25T17:38:54.834Z,4.53
2019-02-25T17:43:54.953Z,4.50
2019-02-25T17:48:52.878Z,4.90
2019-02-25T17:53:50.475Z,6.40
2019-02-25T17:58:47.460Z,5.87
2019-02-25T18:03:46.082Z,6.53
2019-02-25T18:08:42.639Z,5.60
2019-02-25T18:13:38.947Z,5.73
2019-02-25T18:18:36.619Z,5.70
2019-02-25T18:23:34.440Z,7.10
2019-02-25T18:28:30.201Z,6.60
2019-02-25T18:33:27.391Z,5.87
2019-02-25T18:38:25.339Z,6.60
2019-02-25T18:43:22.074Z,6.57
2019-02-25T18:48:21.195Z,5.47
2019-02-25T18:53:23.406Z,5.90
2019-02-25T18:58:20.897Z,6.40
2019-02-25T19:03:16.713Z,5.87
2019-02-25T19:08:22.938Z,6.40
2019-02-25T19:13:20.989Z,7.20
2019-02-25T19:18:18.072Z,5.77
2019-02-25T19:23:14.754Z,5.80
2019-02-25T19:28:16.592Z,5.70
2019-02-25T19:33:11.463Z,5.60
2019-02-25T19:38:08.322Z,5.50
2019-02-25T19:43:06.364Z,5.50
2019-02-25T19:48:05.221Z,7.77
2019-02-25T19:53:04.619Z,7.17
2019-02-25T19:57:58.687Z,6.87
2019-02-25T20:03:04.831Z,5.50
2019-02-25T20:07:54.683Z,5.47
2019-02-25T20:12:52.577Z,5.67
2019-02-25T20:17:48.850Z,6.10
2019-02-25T20:22:45.567Z,5.70
2019-02-25T20:27:41.407Z,6.07
2019-02-25T20:32:38.646Z,6.37
2019-02-25T20:37:34.804Z,6.20
2019-02-25T20:42:32.654Z,5.30
2019-02-25T20:47:28.695Z,6.20
2019-02-25T20:52:24.614Z,5.57
2019-02-25T20:57:20.499Z,5.57
2019-02-25T21:02:18.621Z,5.77
2019-02-25T21:07:14.611Z,6.27
2019-02-25T21:12:12.719Z,5.70
2019-02-25T21:17:08.136Z,6.33
2019-02-25T21:22:04.873Z,6.27
2019-02-25T21:27:10.458Z,6.27
2019-02-25T21:32:12.760Z,5.77
2019-02-25T21:37:06.212Z,7.00
2019-02-25T21:42:08.810Z,7.73
2019-02-25T21:47:06.162Z,7.10
